createdAt,value
2019-01-05T17:25:50.422Z,-5.22
2019-01-05T17:28:20.483Z,-4.19
2019-01-05T17:30:56.320Z,-4.12
2019-01-05T17:33:26.381Z,-3.97
2019-01-05T17:36:02.324Z,-4.00
2019-01-05T17:38:44.168Z,-3.75
2019-01-05T17:41:29.145Z,-4.30
2019-01-05T17:44:05.078Z,-4.20
2019-01-05T17:46:35.173Z,-4.46
2019-01-05T17:49:05.235Z,-4.66
2019-01-05T17:51:35.322Z,-4.98
2019-01-05T17:54:08.439Z,-4.89
2019-01-05T17:56:41.455Z,-4.62
2019-01-05T17:59:20.279Z,-4.94
2019-01-05T18:01:50.381Z,-4.82
2019-01-05T18:04:38.698Z,-4.50
2019-01-05T18:07:14.692Z,-4.32
2019-01-05T18:09:59.672Z,-4.24
2019-01-05T18:12:32.484Z,-4.01
2019-01-05T18:15:05.303Z,-4.09
2019-01-05T18:17:38.086Z,-3.58
2019-01-05T18:20:24.273Z,-3.58
2019-01-05T18:23:10.260Z,-3.72
2019-01-05T18:25:40.363Z,-5.27
2019-01-05T18:28:10.426Z,-5.72
2019-01-05T18:30:56.492Z,-4.76
2019-01-05T18:33:26.540Z,-4.58
2019-01-05T18:36:05.749Z,-4.80
2019-01-05T18:38:38.498Z,-5.05
2019-01-05T18:41:11.332Z,-4.64
2019-01-05T18:43:59.013Z,-4.50
2019-01-05T18:46:29.103Z,-4.51
2019-01-05T18:49:07.792Z,-4.28
2019-01-05T18:51:37.889Z,-4.50
2019-01-05T18:54:19.469Z,-4.12
2019-01-05T18:57:01.503Z,-3.98
2019-01-05T18:59:34.286Z,-4.11
2019-01-05T19:02:20.807Z,-4.27
2019-01-05T19:05:06.083Z,-4.25
2019-01-05T19:07:48.203Z,-4.53
2019-01-05T19:10:34.145Z,-4.50
2019-01-05T19:13:07.237Z,-4.44
2019-01-05T19:15:40.185Z,-4.85
2019-01-05T19:18:19.353Z,-4.53
2019-01-05T19:20:55.376Z,-4.12
2019-01-05T19:23:34.329Z,-4.26
2019-01-05T19:26:13.224Z,-3.96
2019-01-05T19:28:59.203Z,-4.80
2019-01-05T19:31:29.291Z,-4.70
2019-01-05T19:34:11.410Z,-4.59
2019-01-05T19:36:44.019Z,-4.04
2019-01-05T19:39:20.087Z,-4.17
2019-01-05T19:42:08.810Z,-4.03
2019-01-05T19:44:38.908Z,-3.83
2019-01-05T19:47:11.473Z,-3.76
2019-01-05T19:49:44.289Z,-3.91
2019-01-05T19:52:25.988Z,-3.95
2019-01-05T19:55:08.381Z,-3.75
2019-01-05T19:57:47.408Z,-3.79
2019-01-05T20:00:17.517Z,-3.95
2019-01-05T20:03:03.860Z,-3.92
2019-01-05T20:05:43.126Z,-4.15
2019-01-05T20:08:28.337Z,-4.56
2019-01-05T20:11:04.031Z,-4.65
2019-01-05T20:13:50.293Z,-4.65
2019-01-05T20:16:27.738Z,-4.71
2019-01-05T20:19:00.494Z,-4.88
2019-01-05T20:21:30.559Z,-4.27
2019-01-05T20:24:09.530Z,-4.41
2019-01-05T20:26:51.521Z,-4.27
2019-01-05T20:29:30.622Z,-4.40
2019-01-05T20:32:16.851Z,-4.35
2019-01-05T20:34:55.109Z,-6.22
2019-01-05T20:37:25.171Z,-5.24
2019-01-05T20:39:55.252Z,-5.44
2019-01-05T20:42:43.511Z,-6.26
2019-01-05T20:45:16.383Z,-5.50
2019-01-05T20:47:49.536Z,-4.90
2019-01-05T20:50:19.600Z,-4.69
2019-01-05T20:53:07.551Z,-4.71
2019-01-05T20:55:53.723Z,-4.44
2019-01-05T20:58:40.488Z,-4.35
2019-01-05T21:01:28.629Z,-4.52
2019-01-05T21:04:04.706Z,-4.37
2019-01-05T21:06:43.590Z,-5.97
2019-01-05T21:09:13.688Z,-6.17
2019-01-05T21:11:43.755Z,-6.17
2019-01-05T21:14:22.899Z,-5.31
2019-01-05T21:16:52.959Z,-4.43
2019-01-05T21:19:26.027Z,-5.43
2019-01-05T21:21:58.873Z,-5.98
2019-01-05T21:24:35.037Z,-5.41
2019-01-05T21:27:14.251Z,-5.60
2019-01-05T21:30:00.350Z,-4.83
2019-01-05T21:32:33.147Z,-4.62
2019-01-05T21:35:05.926Z,-4.92
2019-01-05T21:37:52.238Z,-4.62
2019-01-05T21:40:38.627Z,-4.77
2019-01-05T21:43:20.543Z,-4.86
2019-01-05T21:45:51.845Z,-5.97
2019-01-05T21:48:21.953Z,-5.06
2019-01-05T21:51:00.863Z,-4.59
2019-01-05T21:53:45.864Z,-5.14
2019-01-05T21:56:22.303Z,-4.85
2019-01-05T21:58:52.356Z,-5.29
2019-01-05T22:01:31.276Z,-5.58
2019-01-05T22:04:07.118Z,-4.64
2019-01-05T22:06:53.121Z,-4.40
2019-01-05T22:09:28.918Z,-5.06
2019-01-05T22:12:14.139Z,-5.00
2019-01-05T22:15:00.242Z,-4.91
2019-01-05T22:17:46.594Z,-5.33
2019-01-05T22:20:19.146Z,-4.40
2019-01-05T22:23:05.457Z,-4.66
2019-01-05T22:25:51.502Z,-4.88
2019-01-05T22:28:36.719Z,-4.29
2019-01-05T22:31:22.598Z,-4.35
2019-01-05T22:34:08.717Z,-5.71
2019-01-05T22:36:47.973Z,-5.11
2019-01-05T22:39:34.315Z,-5.67
2019-01-05T22:42:04.369Z,-4.54
2019-01-05T22:44:34.426Z,-5.35
2019-01-05T22:47:20.324Z,-5.26
2019-01-05T22:49:50.323Z,-5.24
2019-01-05T22:52:26.418Z,-4.70
2019-01-05T22:55:12.404Z,-5.24
2019-01-05T22:57:50.996Z,-5.47
2019-01-05T23:00:37.887Z,-6.16
2019-01-05T23:03:24.803Z,-5.21
2019-01-05T23:06:10.715Z,-5.42
2019-01-05T23:08:57.085Z,-4.93
2019-01-05T23:11:27.141Z,-5.16
2019-01-05T23:14:15.285Z,-5.44
2019-01-05T23:16:48.171Z,-4.86
2019-01-05T23:19:18.254Z,-5.18
2019-01-05T23:21:48.288Z,-5.53
2019-01-05T23:24:30.165Z,-5.02
2019-01-05T23:27:16.071Z,-5.04
2019-01-05T23:29:48.933Z,-4.92
2019-01-05T23:32:18.850Z,-4.77
2019-01-05T23:34:48.956Z,-4.16
2019-01-05T23:37:18.948Z,-4.32
2019-01-05T23:40:01.011Z,-4.25
2019-01-05T23:42:30.927Z,-4.21
2019-01-05T23:45:12.759Z,-4.40
2019-01-05T23:47:58.999Z,-4.26
2019-01-05T23:50:41.071Z,-3.98
2019-01-05T23:53:16.560Z,-4.13
2019-01-05T23:55:55.196Z,-4.12
2019-01-05T23:58:43.438Z,-4.31
